createdAt,value
2023-05-14T00:05:39.900Z,98.36
2023-05-14T00:10:59.622Z,98.54
2023-05-14T00:16:18.586Z,98.62
2023-05-14T00:21:37.784Z,98.61
2023-05-14T00:32:16.664Z,98.7
2023-05-14T00:37:35.533Z,98.82
2023-05-14T00:48:14.389Z,99.12
2023-05-14T00:53:33.268Z,99.02
2023-05-14T01:04:12.417Z,99.11
2023-05-14T01:09:31.239Z,99.16
2023-05-14T01:14:50.822Z,99.24
2023-05-14T01:20:10.461Z,99.53
2023-05-14T01:30:48.674Z,99.64
2023-05-14T01:36:08.262Z,99.38
2023-05-14T01:46:46.806Z,99.71
2023-05-14T01:52:06.229Z,99.74
2023-05-14T01:57:25.959Z,99.91
2023-05-14T02:08:05.236Z,99.86
2023-05-14T02:13:24.941Z,99.89
2023-05-14T02:24:03.403Z,99.99
2023-05-14T02:29:22.649Z,99.99
2023-05-14T02:40:01.822Z,99.99
2023-05-14T02:50:40.336Z,99.99
2023-05-14T02:55:59.903Z,99.99
2023-05-14T03:06:38.901Z,99.99
2023-05-14T03:11:57.726Z,99.99
2023-05-14T03:22:36.002Z,99.99
2023-05-14T03:33:14.942Z,99.99
2023-05-14T03:38:34.703Z,99.99
2023-05-14T03:49:12.964Z,99.99
2023-05-14T03:54:31.819Z,99.99
2023-05-14T04:05:10.391Z,99.99
2023-05-14T04:10:34.617Z,99.99
2023-05-14T04:21:07.581Z,99.99
2023-05-14T04:31:46.777Z,99.99
2023-05-14T04:37:05.826Z,99.99
2023-05-14T04:47:52.905Z,99.99
2023-05-14T04:53:03.011Z,99.99
2023-05-14T05:03:41.525Z,99.99
2023-05-14T05:14:19.789Z,99.99
2023-05-14T05:19:43.490Z,99.99
2023-05-14T05:30:16.531Z,99.99
2023-05-14T05:35:35.935Z,99.99
2023-05-14T05:46:14.641Z,99.99
2023-05-14T06:02:12.446Z,99.99
2023-05-14T06:12:51.526Z,99.99
2023-05-14T06:18:11.017Z,99.99
2023-05-14T06:28:49.169Z,99.99
2023-05-14T06:34:08.415Z,99.85
2023-05-14T06:44:55.580Z,94.29
2023-05-14T06:55:25.766Z,87.81
2023-05-14T07:00:46.021Z,86.82
2023-05-14T07:11:24.232Z,85.56
2023-05-14T07:16:43.388Z,85.08
2023-05-14T07:27:21.889Z,83.85
2023-05-14T07:32:41.459Z,81.95
2023-05-14T07:38:00.206Z,81.78
2023-05-14T07:43:19.104Z,79.55
2023-05-14T07:53:57.531Z,78.4
2023-05-14T07:59:16.822Z,77.62
2023-05-14T08:09:55.967Z,78.46
2023-05-14T08:20:34.672Z,74.99
2023-05-14T08:25:53.973Z,74.6
2023-05-14T08:31:12.890Z,72.28
2023-05-14T08:36:31.600Z,70.8
2023-05-14T08:47:08.983Z,72.86
2023-05-14T08:52:27.788Z,72.11
2023-05-14T09:03:06.400Z,73.03
2023-05-14T09:19:04.452Z,71.08
2023-05-14T09:29:42.041Z,71.01
2023-05-14T09:35:01.134Z,73.53
2023-05-14T09:45:39.869Z,70.03
2023-05-14T09:56:19.016Z,69.49
2023-05-14T10:01:38.050Z,69.68
2023-05-14T10:12:15.965Z,70.08
2023-05-14T10:17:35.516Z,69
2023-05-14T10:28:13.672Z,69.72
2023-05-14T10:33:32.791Z,69.05
2023-05-14T10:44:10.663Z,71.24
2023-05-14T10:54:49.015Z,71.53
2023-05-14T11:00:08.393Z,72.69
2023-05-14T11:10:46.769Z,72
2023-05-14T11:16:15.470Z,71.89
2023-05-14T11:21:25.110Z,71.19
2023-05-14T11:26:44.051Z,70.37
2023-05-14T11:37:23.082Z,68.41
2023-05-14T11:42:42.705Z,66.12
2023-05-14T11:53:21.087Z,67.72
2023-05-14T11:58:40.673Z,66.56
2023-05-14T12:09:18.579Z,67.06
2023-05-14T12:14:37.306Z,64.9
2023-05-14T12:25:15.682Z,64.35
2023-05-14T12:35:54.474Z,64.89
2023-05-14T12:41:14.125Z,62.83
2023-05-14T12:51:56.840Z,58.92
2023-05-14T12:57:10.666Z,59.97
2023-05-14T13:07:49.409Z,63.61
2023-05-14T13:18:28.412Z,63.49
2023-05-14T13:23:47.128Z,60.21
2023-05-14T13:30:10.539Z,56.79
2023-05-14T13:40:20.379Z,59
2023-05-14T13:50:59.164Z,57.28
2023-05-14T13:56:18.287Z,55.88
2023-05-14T14:06:56.992Z,50.55
2023-05-14T14:12:15.782Z,51.74
2023-05-14T14:22:53.565Z,53.85
2023-05-14T14:28:12.412Z,56.48
2023-05-14T14:33:31.905Z,55
2023-05-14T14:38:50.824Z,52.44
2023-05-14T14:49:28.472Z,51.11
2023-05-14T14:54:47.187Z,49.52
2023-05-14T15:05:26.016Z,52.08
2023-05-14T15:10:44.829Z,52.58
2023-05-14T15:16:04.274Z,48.11
2023-05-14T15:26:43.491Z,49.74
2023-05-14T15:32:02.953Z,50.28
2023-05-14T15:42:41.059Z,50.96
2023-05-14T15:48:00.841Z,48.93
2023-05-14T15:58:39.561Z,52.57
2023-05-14T16:14:36.523Z,50.78
2023-05-14T16:25:14.449Z,53.06
2023-05-14T16:30:33.587Z,51.59
2023-05-14T16:41:12.526Z,50.09
2023-05-14T16:46:31.716Z,50.12
2023-05-14T16:57:09.952Z,51.57
2023-05-14T17:07:58.745Z,53.37
2023-05-14T17:13:08.277Z,52.78
2023-05-14T17:23:47.281Z,55.04
2023-05-14T17:29:06.649Z,54.97
2023-05-14T17:39:44.428Z,54.63
2023-05-14T17:50:23.073Z,59.19
2023-05-14T17:55:42.242Z,60.62
2023-05-14T18:06:20.642Z,62.97
2023-05-14T18:11:39.704Z,64.86
2023-05-14T18:22:18.179Z,65.24
2023-05-14T18:27:37.060Z,65.15
2023-05-14T18:38:14.824Z,65.24
2023-05-14T18:48:53.225Z,64.67
2023-05-14T18:54:12.096Z,65.82
2023-05-14T19:04:52.542Z,70.51
2023-05-14T19:10:08.578Z,73.98
2023-05-14T19:20:46.783Z,77.86
2023-05-14T19:31:24.693Z,79.57
2023-05-14T19:36:43.805Z,80.28
2023-05-14T19:47:22.270Z,81.48
2023-05-14T19:52:41.605Z,82.21
2023-05-14T20:03:19.540Z,83.17
2023-05-14T20:19:18.321Z,84.53
2023-05-14T20:29:57.227Z,85.25
2023-05-14T20:35:16.149Z,86.03
2023-05-14T20:45:54.761Z,87.44
2023-05-14T20:51:13.764Z,87.88
2023-05-14T20:56:32.460Z,87.44
2023-05-14T21:02:01.458Z,86.74
2023-05-14T21:12:30.323Z,88.02
2023-05-14T21:17:49.692Z,86.81
2023-05-14T21:28:28.624Z,86.65
2023-05-14T21:33:47.632Z,86.08
2023-05-14T21:44:26.029Z,88.65
2023-05-14T22:00:24.250Z,90.38
2023-05-14T22:05:42.675Z,90.72
2023-05-14T22:11:01.631Z,90.75
2023-05-14T22:21:39.979Z,93.57
2023-05-14T22:37:37.763Z,93.81
2023-05-14T22:48:16.519Z,93.42
2023-05-14T22:53:35.355Z,93.87
2023-05-14T23:04:14.209Z,94.21
2023-05-14T23:09:33.430Z,94.37
2023-05-14T23:14:52.531Z,93.78
2023-05-14T23:20:12.073Z,94.17
2023-05-14T23:30:50.057Z,94.99
2023-05-14T23:36:09.162Z,94.84
2023-05-14T23:46:47.884Z,96.06
2023-05-14T23:52:07.485Z,96.43
